Etters, Pennsylvania
Current Conditions -  °F | °C
As of 3:56 AM on Monday 24 Nov 2014 (Local Time) from KMDT Reporting Station
Overcast Overcast  
Wind Chill: 59°   Ceiling: 1200
Heat Index: 59°   Visibility: 10mi
Dew Point: 56°   Wind: 9mph
Humidity: 90%   Direction: 160°SSE
Pressure: 29.61"   Gusts: NA
Location:  40.15°N, 76.79°W
Report Text: KMDT 240856Z 16008KT 10SM OVC012 15/13 A2961 RMK AO2 RAE47 SLP027 P0004 60029 T01500133 56043
Loading
Personal Weather Stations






























Interactive Weather Map New forecast layout! Learn more

10-Day Weather Forecast

Advertisements
Track Severe Weather on mobile